sensor_id;sensor_type;location;lat;lon;timestamp;P1;durP1;ratioP1;P2;durP2;ratioP2
12756;SDS011;31601;48.042;12.240;2023-07-31T00:01:59;5.25;;;2.20;;
12756;SDS011;31601;48.042;12.240;2023-07-31T00:04:25;4.05;;;2.08;;
12756;SDS011;31601;48.042;12.240;2023-07-31T00:06:51;2.85;;;2.25;;
12756;SDS011;31601;48.042;12.240;2023-07-31T00:09:18;3.55;;;2.25;;
12756;SDS011;31601;48.042;12.240;2023-07-31T00:11:46;5.35;;;2.50;;
12756;SDS011;31601;48.042;12.240;2023-07-31T00:14:12;6.15;;;2.60;;
12756;SDS011;31601;48.042;12.240;2023-07-31T00:16:39;4.97;;;2.60;;
12756;SDS011;31601;48.042;12.240;2023-07-31T00:19:05;5.37;;;2.90;;
12756;SDS011;31601;48.042;12.240;2023-07-31T00:21:32;6.60;;;2.95;;
12756;SDS011;31601;48.042;12.240;2023-07-31T00:23:58;5.38;;;2.47;;
12756;SDS011;31601;48.042;12.240;2023-07-31T00:26:24;4.60;;;2.88;;
12756;SDS011;31601;48.042;12.240;2023-07-31T00:28:52;6.78;;;2.58;;
12756;SDS011;31601;48.042;12.240;2023-07-31T00:31:18;5.68;;;2.92;;
12756;SDS011;31601;48.042;12.240;2023-07-31T00:33:45;4.80;;;2.47;;
12756;SDS011;31601;48.042;12.240;2023-07-31T00:36:11;7.70;;;3.00;;
12756;SDS011;31601;48.042;12.240;2023-07-31T00:38:38;4.55;;;2.50;;
12756;SDS011;31601;48.042;12.240;2023-07-31T00:41:04;5.70;;;2.42;;
12756;SDS011;31601;48.042;12.240;2023-07-31T00:43:31;6.20;;;2.63;;
12756;SDS011;31601;48.042;12.240;2023-07-31T00:45:58;5.03;;;2.50;;
12756;SDS011;31601;48.042;12.240;2023-07-31T00:48:25;6.25;;;2.50;;
12756;SDS011;31601;48.042;12.240;2023-07-31T00:50:52;5.00;;;2.50;;
12756;SDS011;31601;48.042;12.240;2023-07-31T00:53:18;4.90;;;2.40;;
12756;SDS011;31601;48.042;12.240;2023-07-31T00:55:45;6.57;;;3.08;;
12756;SDS011;31601;48.042;12.240;2023-07-31T00:58:12;5.50;;;2.75;;
12756;SDS011;31601;48.042;12.240;2023-07-31T01:00:38;8.17;;;2.77;;
12756;SDS011;31601;48.042;12.240;2023-07-31T01:03:05;6.43;;;2.90;;
12756;SDS011;31601;48.042;12.240;2023-07-31T01:05:33;3.53;;;2.37;;
12756;SDS011;31601;48.042;12.240;2023-07-31T01:08:07;8.40;;;2.57;;
12756;SDS011;31601;48.042;12.240;2023-07-31T01:10:44;2.93;;;2.43;;
12756;SDS011;31601;48.042;12.240;2023-07-31T01:13:15;6.73;;;2.47;;
12756;SDS011;31601;48.042;12.240;2023-07-31T01:15:43;4.83;;;3.23;;
12756;SDS011;31601;48.042;12.240;2023-07-31T01:18:11;6.57;;;2.80;;
12756;SDS011;31601;48.042;12.240;2023-07-31T01:20:37;4.40;;;2.60;;
12756;SDS011;31601;48.042;12.240;2023-07-31T01:23:28;4.57;;;2.60;;
12756;SDS011;31601;48.042;12.240;2023-07-31T01:26:11;4.67;;;2.13;;
12756;SDS011;31601;48.042;12.240;2023-07-31T01:28:44;3.93;;;2.30;;
12756;SDS011;31601;48.042;12.240;2023-07-31T01:31:18;6.90;;;2.67;;
12756;SDS011;31601;48.042;12.240;2023-07-31T01:33:47;6.00;;;2.63;;
12756;SDS011;31601;48.042;12.240;2023-07-31T01:36:15;5.17;;;2.70;;
12756;SDS011;31601;48.042;12.240;2023-07-31T01:38:42;8.33;;;3.87;;
12756;SDS011;31601;48.042;12.240;2023-07-31T01:41:08;7.87;;;3.90;;
12756;SDS011;31601;48.042;12.240;2023-07-31T01:43:36;8.10;;;3.47;;
12756;SDS011;31601;48.042;12.240;2023-07-31T01:46:02;4.70;;;3.28;;
12756;SDS011;31601;48.042;12.240;2023-07-31T01:48:29;5.27;;;2.90;;
12756;SDS011;31601;48.042;12.240;2023-07-31T01:51:00;4.93;;;3.10;;
12756;SDS011;31601;48.042;12.240;2023-07-31T01:53:27;4.77;;;3.20;;
12756;SDS011;31601;48.042;12.240;2023-07-31T01:55:53;5.13;;;2.90;;
12756;SDS011;31601;48.042;12.240;2023-07-31T01:58:19;4.53;;;2.87;;
12756;SDS011;31601;48.042;12.240;2023-07-31T02:00:47;5.57;;;3.20;;
12756;SDS011;31601;48.042;12.240;2023-07-31T02:03:14;3.60;;;3.10;;
12756;SDS011;31601;48.042;12.240;2023-07-31T02:05:43;5.40;;;3.23;;
12756;SDS011;31601;48.042;12.240;2023-07-31T02:08:10;5.35;;;2.83;;
12756;SDS011;31601;48.042;12.240;2023-07-31T02:10:36;7.40;;;3.10;;
12756;SDS011;31601;48.042;12.240;2023-07-31T02:13:03;5.03;;;2.72;;
12756;SDS011;31601;48.042;12.240;2023-07-31T02:15:29;5.90;;;2.77;;
12756;SDS011;31601;48.042;12.240;2023-07-31T02:17:57;4.27;;;2.80;;
12756;SDS011;31601;48.042;12.240;2023-07-31T02:20:24;4.73;;;3.03;;
12756;SDS011;31601;48.042;12.240;2023-07-31T02:22:50;6.87;;;3.20;;
12756;SDS011;31601;48.042;12.240;2023-07-31T02:25:17;7.60;;;2.97;;
12756;SDS011;31601;48.042;12.240;2023-07-31T02:27:43;11.23;;;3.55;;
12756;SDS011;31601;48.042;12.240;2023-07-31T02:30:10;7.23;;;3.40;;
12756;SDS011;31601;48.042;12.240;2023-07-31T02:32:37;4.00;;;2.67;;
12756;SDS011;31601;48.042;12.240;2023-07-31T02:35:06;8.80;;;2.87;;
12756;SDS011;31601;48.042;12.240;2023-07-31T02:37:33;4.25;;;2.60;;
12756;SDS011;31601;48.042;12.240;2023-07-31T02:40:00;4.53;;;2.50;;
12756;SDS011;31601;48.042;12.240;2023-07-31T02:42:26;3.73;;;2.70;;
12756;SDS011;31601;48.042;12.240;2023-07-31T02:44:53;4.83;;;3.00;;
12756;SDS011;31601;48.042;12.240;2023-07-31T02:47:21;5.17;;;2.93;;
12756;SDS011;31601;48.042;12.240;2023-07-31T02:49:47;7.00;;;2.77;;
12756;SDS011;31601;48.042;12.240;2023-07-31T02:52:15;6.13;;;2.90;;
12756;SDS011;31601;48.042;12.240;2023-07-31T02:54:41;7.40;;;3.10;;
12756;SDS011;31601;48.042;12.240;2023-07-31T02:57:08;6.13;;;2.70;;
12756;SDS011;31601;48.042;12.240;2023-07-31T02:59:37;3.30;;;2.77;;
12756;SDS011;31601;48.042;12.240;2023-07-31T03:02:03;6.80;;;3.47;;
12756;SDS011;31601;48.042;12.240;2023-07-31T03:04:30;5.20;;;3.20;;
12756;SDS011;31601;48.042;12.240;2023-07-31T03:06:56;4.93;;;2.87;;
12756;SDS011;31601;48.042;12.240;2023-07-31T03:09:24;5.83;;;2.90;;
12756;SDS011;31601;48.042;12.240;2023-07-31T03:11:50;5.33;;;2.90;;
12756;SDS011;31601;48.042;12.240;2023-07-31T03:14:17;5.67;;;3.00;;
12756;SDS011;31601;48.042;12.240;2023-07-31T03:16:43;6.77;;;2.83;;
12756;SDS011;31601;48.042;12.240;2023-07-31T03:19:10;5.10;;;3.10;;
12756;SDS011;31601;48.042;12.240;2023-07-31T03:21:36;6.03;;;2.83;;
12756;SDS011;31601;48.042;12.240;2023-07-31T03:24:03;5.43;;;2.90;;
12756;SDS011;31601;48.042;12.240;2023-07-31T03:26:32;5.20;;;3.10;;
12756;SDS011;31601;48.042;12.240;2023-07-31T03:28:58;3.43;;;2.80;;
12756;SDS011;31601;48.042;12.240;2023-07-31T03:31:25;5.23;;;3.10;;
12756;SDS011;31601;48.042;12.240;2023-07-31T03:33:51;4.83;;;3.00;;
12756;SDS011;31601;48.042;12.240;2023-07-31T03:36:17;6.23;;;3.43;;
12756;SDS011;31601;48.042;12.240;2023-07-31T03:38:44;8.03;;;3.77;;
12756;SDS011;31601;48.042;12.240;2023-07-31T03:41:11;6.20;;;3.30;;
12756;SDS011;31601;48.042;12.240;2023-07-31T03:43:39;6.87;;;3.30;;
12756;SDS011;31601;48.042;12.240;2023-07-31T03:46:06;4.90;;;3.50;;
12756;SDS011;31601;48.042;12.240;2023-07-31T03:48:32;8.67;;;3.53;;
12756;SDS011;31601;48.042;12.240;2023-07-31T03:50:59;4.73;;;3.20;;
12756;SDS011;31601;48.042;12.240;2023-07-31T03:53:25;5.20;;;3.47;;
12756;SDS011;31601;48.042;12.240;2023-07-31T03:55:51;5.97;;;3.33;;
12756;SDS011;31601;48.042;12.240;2023-07-31T03:58:18;11.83;;;3.50;;
12756;SDS011;31601;48.042;12.240;2023-07-31T04:00:46;6.30;;;3.00;;
12756;SDS011;31601;48.042;12.240;2023-07-31T04:03:13;7.13;;;2.53;;
12756;SDS011;31601;48.042;12.240;2023-07-31T04:05:39;6.90;;;2.40;;
12756;SDS011;31601;48.042;12.240;2023-07-31T04:08:06;13.57;;;3.10;;
12756;SDS011;31601;48.042;12.240;2023-07-31T04:10:32;4.63;;;2.73;;
12756;SDS011;31601;48.042;12.240;2023-07-31T04:12:59;4.33;;;2.40;;
12756;SDS011;31601;48.042;12.240;2023-07-31T04:15:25;8.57;;;3.07;;
12756;SDS011;31601;48.042;12.240;2023-07-31T04:17:53;5.60;;;2.73;;
12756;SDS011;31601;48.042;12.240;2023-07-31T04:20:19;4.27;;;2.80;;
12756;SDS011;31601;48.042;12.240;2023-07-31T04:22:46;3.50;;;2.50;;
12756;SDS011;31601;48.042;12.240;2023-07-31T04:25:12;4.83;;;2.90;;
12756;SDS011;31601;48.042;12.240;2023-07-31T04:27:40;4.70;;;2.47;;
12756;SDS011;31601;48.042;12.240;2023-07-31T04:30:06;5.83;;;2.80;;
12756;SDS011;31601;48.042;12.240;2023-07-31T04:32:33;6.63;;;2.87;;
12756;SDS011;31601;48.042;12.240;2023-07-31T04:35:02;9.80;;;2.80;;
12756;SDS011;31601;48.042;12.240;2023-07-31T04:37:28;5.17;;;3.00;;
12756;SDS011;31601;48.042;12.240;2023-07-31T04:39:54;4.93;;;2.53;;
12756;SDS011;31601;48.042;12.240;2023-07-31T04:42:21;3.93;;;2.90;;
12756;SDS011;31601;48.042;12.240;2023-07-31T04:44:47;4.77;;;2.30;;
12756;SDS011;31601;48.042;12.240;2023-07-31T04:47:14;5.13;;;2.67;;
12756;SDS011;31601;48.042;12.240;2023-07-31T04:49:40;9.77;;;2.90;;
12756;SDS011;31601;48.042;12.240;2023-07-31T04:52:08;6.87;;;2.73;;
12756;SDS011;31601;48.042;12.240;2023-07-31T04:54:34;7.33;;;2.97;;
12756;SDS011;31601;48.042;12.240;2023-07-31T04:57:01;10.17;;;2.17;;
12756;SDS011;31601;48.042;12.240;2023-07-31T04:59:27;4.60;;;2.97;;
12756;SDS011;31601;48.042;12.240;2023-07-31T05:01:54;3.47;;;2.77;;
12756;SDS011;31601;48.042;12.240;2023-07-31T05:04:21;5.87;;;3.00;;
12756;SDS011;31601;48.042;12.240;2023-07-31T05:06:47;9.83;;;3.10;;
12756;SDS011;31601;48.042;12.240;2023-07-31T05:09:15;7.03;;;3.30;;
12756;SDS011;31601;48.042;12.240;2023-07-31T05:11:41;6.97;;;3.28;;
12756;SDS011;31601;48.042;12.240;2023-07-31T05:14:08;4.53;;;3.63;;
12756;SDS011;31601;48.042;12.240;2023-07-31T05:16:34;10.05;;;4.30;;
12756;SDS011;31601;48.042;12.240;2023-07-31T05:19:01;6.88;;;3.50;;
12756;SDS011;31601;48.042;12.240;2023-07-31T05:21:27;4.35;;;3.17;;
12756;SDS011;31601;48.042;12.240;2023-07-31T05:23:54;5.03;;;3.58;;
12756;SDS011;31601;48.042;12.240;2023-07-31T05:26:21;8.10;;;3.55;;
12756;SDS011;31601;48.042;12.240;2023-07-31T05:28:48;6.05;;;3.20;;
12756;SDS011;31601;48.042;12.240;2023-07-31T05:31:14;7.78;;;3.50;;
12756;SDS011;31601;48.042;12.240;2023-07-31T05:33:41;6.03;;;3.10;;
12756;SDS011;31601;48.042;12.240;2023-07-31T05:36:07;5.93;;;3.00;;
12756;SDS011;31601;48.042;12.240;2023-07-31T05:38:34;6.60;;;3.08;;
12756;SDS011;31601;48.042;12.240;2023-07-31T05:41:00;4.57;;;3.15;;
12756;SDS011;31601;48.042;12.240;2023-07-31T05:43:28;4.95;;;3.15;;
12756;SDS011;31601;48.042;12.240;2023-07-31T05:45:54;5.57;;;2.80;;
12756;SDS011;31601;48.042;12.240;2023-07-31T05:48:21;4.85;;;3.10;;
12756;SDS011;31601;48.042;12.240;2023-07-31T05:50:47;4.65;;;2.60;;
12756;SDS011;31601;48.042;12.240;2023-07-31T05:53:14;11.32;;;2.85;;
12756;SDS011;31601;48.042;12.240;2023-07-31T05:55:40;5.45;;;2.05;;
12756;SDS011;31601;48.042;12.240;2023-07-31T05:58:07;6.00;;;2.25;;
12756;SDS011;31601;48.042;12.240;2023-07-31T06:00:34;4.22;;;2.20;;
12756;SDS011;31601;48.042;12.240;2023-07-31T06:03:01;4.07;;;2.20;;
12756;SDS011;31601;48.042;12.240;2023-07-31T06:05:27;7.20;;;2.10;;
12756;SDS011;31601;48.042;12.240;2023-07-31T06:07:55;3.63;;;2.20;;
12756;SDS011;31601;48.042;12.240;2023-07-31T06:10:21;2.92;;;1.90;;
12756;SDS011;31601;48.042;12.240;2023-07-31T06:12:47;3.30;;;1.80;;
12756;SDS011;31601;48.042;12.240;2023-07-31T06:15:14;5.50;;;1.90;;
12756;SDS011;31601;48.042;12.240;2023-07-31T06:17:42;6.18;;;1.95;;
12756;SDS011;31601;48.042;12.240;2023-07-31T06:20:08;4.20;;;1.92;;
12756;SDS011;31601;48.042;12.240;2023-07-31T06:22:35;4.30;;;2.08;;
12756;SDS011;31601;48.042;12.240;2023-07-31T06:25:01;5.05;;;2.25;;
12756;SDS011;31601;48.042;12.240;2023-07-31T06:27:28;5.90;;;2.22;;
12756;SDS011;31601;48.042;12.240;2023-07-31T06:29:55;3.67;;;2.00;;
12756;SDS011;31601;48.042;12.240;2023-07-31T06:32:21;3.60;;;1.98;;
12756;SDS011;31601;48.042;12.240;2023-07-31T06:34:49;5.13;;;2.85;;
12756;SDS011;31601;48.042;12.240;2023-07-31T06:37:15;4.47;;;2.15;;
12756;SDS011;31601;48.042;12.240;2023-07-31T06:39:42;5.68;;;2.00;;
12756;SDS011;31601;48.042;12.240;2023-07-31T06:42:08;4.22;;;1.70;;
12756;SDS011;31601;48.042;12.240;2023-07-31T06:44:35;4.78;;;2.22;;
12756;SDS011;31601;48.042;12.240;2023-07-31T06:47:01;4.78;;;1.90;;
12756;SDS011;31601;48.042;12.240;2023-07-31T06:49:28;6.38;;;2.47;;
12756;SDS011;31601;48.042;12.240;2023-07-31T06:51:56;4.57;;;2.15;;
12756;SDS011;31601;48.042;12.240;2023-07-31T06:54:22;4.22;;;2.13;;
12756;SDS011;31601;48.042;12.240;2023-07-31T06:56:48;5.30;;;2.20;;
12756;SDS011;31601;48.042;12.240;2023-07-31T06:59:15;4.43;;;1.70;;
12756;SDS011;31601;48.042;12.240;2023-07-31T07:01:41;3.30;;;1.88;;
12756;SDS011;31601;48.042;12.240;2023-07-31T07:04:08;3.38;;;1.80;;
12756;SDS011;31601;48.042;12.240;2023-07-31T07:06:34;4.35;;;1.73;;
12756;SDS011;31601;48.042;12.240;2023-07-31T07:09:02;6.18;;;1.90;;
12756;SDS011;31601;48.042;12.240;2023-07-31T07:11:29;1.80;;;1.55;;
12756;SDS011;31601;48.042;12.240;2023-07-31T07:13:55;2.67;;;1.60;;
12756;SDS011;31601;48.042;12.240;2023-07-31T07:16:22;4.00;;;1.83;;
12756;SDS011;31601;48.042;12.240;2023-07-31T07:18:48;8.50;;;1.83;;
12756;SDS011;31601;48.042;12.240;2023-07-31T07:21:14;2.88;;;1.67;;
12756;SDS011;31601;48.042;12.240;2023-07-31T07:23:43;2.60;;;1.70;;
12756;SDS011;31601;48.042;12.240;2023-07-31T07:26:10;3.55;;;1.52;;
12756;SDS011;31601;48.042;12.240;2023-07-31T07:28:37;5.80;;;1.98;;
12756;SDS011;31601;48.042;12.240;2023-07-31T07:31:03;4.65;;;2.00;;
12756;SDS011;31601;48.042;12.240;2023-07-31T07:33:30;2.63;;;1.73;;
12756;SDS011;31601;48.042;12.240;2023-07-31T07:35:59;3.25;;;1.90;;
12756;SDS011;31601;48.042;12.240;2023-07-31T07:38:26;4.65;;;2.10;;
12756;SDS011;31601;48.042;12.240;2023-07-31T07:40:53;2.78;;;1.90;;
12756;SDS011;31601;48.042;12.240;2023-07-31T07:43:21;3.05;;;2.00;;
12756;SDS011;31601;48.042;12.240;2023-07-31T07:45:47;3.95;;;1.90;;
12756;SDS011;31601;48.042;12.240;2023-07-31T07:48:14;6.32;;;1.90;;
12756;SDS011;31601;48.042;12.240;2023-07-31T07:50:42;5.60;;;1.58;;
12756;SDS011;31601;48.042;12.240;2023-07-31T07:53:08;3.45;;;2.00;;
12756;SDS011;31601;48.042;12.240;2023-07-31T07:55:35;3.03;;;1.73;;
12756;SDS011;31601;48.042;12.240;2023-07-31T07:58:01;3.70;;;1.88;;
12756;SDS011;31601;48.042;12.240;2023-07-31T08:00:29;5.00;;;2.03;;
12756;SDS011;31601;48.042;12.240;2023-07-31T08:02:56;3.63;;;1.92;;
12756;SDS011;31601;48.042;12.240;2023-07-31T08:05:23;3.03;;;1.80;;
12756;SDS011;31601;48.042;12.240;2023-07-31T08:07:49;3.72;;;2.00;;
12756;SDS011;31601;48.042;12.240;2023-07-31T08:10:16;4.50;;;1.70;;
12756;SDS011;31601;48.042;12.240;2023-07-31T08:12:43;5.40;;;1.80;;
12756;SDS011;31601;48.042;12.240;2023-07-31T08:15:09;2.50;;;1.52;;
12756;SDS011;31601;48.042;12.240;2023-07-31T08:17:37;3.85;;;1.98;;
12756;SDS011;31601;48.042;12.240;2023-07-31T08:20:04;3.65;;;1.55;;
12756;SDS011;31601;48.042;12.240;2023-07-31T08:22:32;4.22;;;1.63;;
12756;SDS011;31601;48.042;12.240;2023-07-31T08:24:58;5.22;;;1.67;;
12756;SDS011;31601;48.042;12.240;2023-07-31T08:27:24;2.78;;;1.50;;
12756;SDS011;31601;48.042;12.240;2023-07-31T08:29:51;5.15;;;2.03;;
12756;SDS011;31601;48.042;12.240;2023-07-31T08:32:18;2.33;;;1.60;;
12756;SDS011;31601;48.042;12.240;2023-07-31T08:34:45;5.43;;;2.08;;
12756;SDS011;31601;48.042;12.240;2023-07-31T08:37:12;5.93;;;1.98;;
12756;SDS011;31601;48.042;12.240;2023-07-31T08:39:38;2.53;;;1.45;;
12756;SDS011;31601;48.042;12.240;2023-07-31T08:42:07;3.17;;;1.80;;
12756;SDS011;31601;48.042;12.240;2023-07-31T08:44:34;3.45;;;1.50;;
12756;SDS011;31601;48.042;12.240;2023-07-31T08:47:01;4.15;;;1.58;;
12756;SDS011;31601;48.042;12.240;2023-07-31T08:49:28;6.80;;;2.38;;
12756;SDS011;31601;48.042;12.240;2023-07-31T08:51:57;3.95;;;1.73;;
12756;SDS011;31601;48.042;12.240;2023-07-31T08:54:24;1.73;;;1.35;;
12756;SDS011;31601;48.042;12.240;2023-07-31T08:56:54;3.15;;;1.50;;
12756;SDS011;31601;48.042;12.240;2023-07-31T08:59:22;6.43;;;1.80;;
12756;SDS011;31601;48.042;12.240;2023-07-31T09:01:50;2.75;;;1.40;;
12756;SDS011;31601;48.042;12.240;2023-07-31T09:04:21;2.47;;;1.15;;
12756;SDS011;31601;48.042;12.240;2023-07-31T09:06:49;4.78;;;1.73;;
12756;SDS011;31601;48.042;12.240;2023-07-31T09:09:22;2.47;;;1.42;;
12756;SDS011;31601;48.042;12.240;2023-07-31T09:11:49;5.65;;;1.73;;
12756;SDS011;31601;48.042;12.240;2023-07-31T09:14:15;4.32;;;1.75;;
12756;SDS011;31601;48.042;12.240;2023-07-31T09:16:52;2.17;;;1.40;;
12756;SDS011;31601;48.042;12.240;2023-07-31T09:19:26;3.35;;;1.52;;
12756;SDS011;31601;48.042;12.240;2023-07-31T09:21:53;4.68;;;1.75;;
12756;SDS011;31601;48.042;12.240;2023-07-31T09:24:27;3.10;;;1.73;;
12756;SDS011;31601;48.042;12.240;2023-07-31T09:26:55;2.40;;;1.30;;
12756;SDS011;31601;48.042;12.240;2023-07-31T09:29:24;3.20;;;1.70;;
12756;SDS011;31601;48.042;12.240;2023-07-31T09:31:51;2.80;;;1.50;;
12756;SDS011;31601;48.042;12.240;2023-07-31T09:34:18;2.20;;;1.40;;
12756;SDS011;31601;48.042;12.240;2023-07-31T09:36:45;2.55;;;1.33;;
12756;SDS011;31601;48.042;12.240;2023-07-31T09:39:13;3.28;;;1.58;;
12756;SDS011;31601;48.042;12.240;2023-07-31T09:41:43;3.20;;;1.70;;
12756;SDS011;31601;48.042;12.240;2023-07-31T09:44:11;5.07;;;2.05;;
12756;SDS011;31601;48.042;12.240;2023-07-31T09:46:38;3.47;;;1.90;;
12756;SDS011;31601;48.042;12.240;2023-07-31T09:49:08;2.33;;;1.42;;
12756;SDS011;31601;48.042;12.240;2023-07-31T09:51:35;3.90;;;1.80;;
12756;SDS011;31601;48.042;12.240;2023-07-31T09:54:04;2.53;;;1.50;;
12756;SDS011;31601;48.042;12.240;2023-07-31T09:56:35;2.90;;;1.65;;
12756;SDS011;31601;48.042;12.240;2023-07-31T09:59:03;2.85;;;1.40;;
12756;SDS011;31601;48.042;12.240;2023-07-31T10:01:31;2.22;;;1.40;;
12756;SDS011;31601;48.042;12.240;2023-07-31T10:03:58;4.97;;;1.70;;
12756;SDS011;31601;48.042;12.240;2023-07-31T10:06:25;2.92;;;1.45;;
12756;SDS011;31601;48.042;12.240;2023-07-31T10:08:52;5.45;;;1.85;;
12756;SDS011;31601;48.042;12.240;2023-07-31T10:11:20;5.05;;;1.40;;
12756;SDS011;31601;48.042;12.240;2023-07-31T10:13:48;2.95;;;1.67;;
12756;SDS011;31601;48.042;12.240;2023-07-31T10:16:17;4.15;;;1.77;;
12756;SDS011;31601;48.042;12.240;2023-07-31T10:18:44;5.38;;;1.60;;
12756;SDS011;31601;48.042;12.240;2023-07-31T10:21:11;3.88;;;1.77;;
12756;SDS011;31601;48.042;12.240;2023-07-31T10:23:39;3.22;;;1.60;;
12756;SDS011;31601;48.042;12.240;2023-07-31T10:26:07;2.63;;;1.60;;
12756;SDS011;31601;48.042;12.240;2023-07-31T10:28:33;3.22;;;1.80;;
12756;SDS011;31601;48.042;12.240;2023-07-31T10:31:02;1.73;;;1.40;;
12756;SDS011;31601;48.042;12.240;2023-07-31T10:33:31;3.05;;;1.70;;
12756;SDS011;31601;48.042;12.240;2023-07-31T10:36:14;5.10;;;1.70;;
12756;SDS011;31601;48.042;12.240;2023-07-31T10:38:42;3.25;;;1.58;;
12756;SDS011;31601;48.042;12.240;2023-07-31T10:41:09;3.63;;;2.08;;
12756;SDS011;31601;48.042;12.240;2023-07-31T10:43:36;2.83;;;1.50;;
12756;SDS011;31601;48.042;12.240;2023-07-31T10:46:06;3.55;;;1.70;;
12756;SDS011;31601;48.042;12.240;2023-07-31T10:48:35;2.83;;;1.75;;
12756;SDS011;31601;48.042;12.240;2023-07-31T10:51:06;4.18;;;1.83;;
12756;SDS011;31601;48.042;12.240;2023-07-31T10:53:35;4.35;;;1.73;;
12756;SDS011;31601;48.042;12.240;2023-07-31T10:56:03;6.28;;;2.10;;
12756;SDS011;31601;48.042;12.240;2023-07-31T10:58:30;2.92;;;1.70;;
12756;SDS011;31601;48.042;12.240;2023-07-31T11:00:58;2.67;;;1.85;;
12756;SDS011;31601;48.042;12.240;2023-07-31T11:03:25;3.55;;;1.77;;
12756;SDS011;31601;48.042;12.240;2023-07-31T11:05:59;6.05;;;1.67;;
12756;SDS011;31601;48.042;12.240;2023-07-31T11:08:28;3.78;;;1.85;;
12756;SDS011;31601;48.042;12.240;2023-07-31T11:11:04;3.30;;;1.85;;
12756;SDS011;31601;48.042;12.240;2023-07-31T11:13:32;3.35;;;1.67;;
12756;SDS011;31601;48.042;12.240;2023-07-31T11:16:00;2.30;;;1.52;;
12756;SDS011;31601;48.042;12.240;2023-07-31T11:18:27;3.83;;;2.00;;
12756;SDS011;31601;48.042;12.240;2023-07-31T11:20:55;3.03;;;1.60;;
12756;SDS011;31601;48.042;12.240;2023-07-31T11:23:21;2.63;;;1.63;;
12756;SDS011;31601;48.042;12.240;2023-07-31T11:25:49;3.65;;;1.98;;
12756;SDS011;31601;48.042;12.240;2023-07-31T11:28:16;5.20;;;1.58;;
12756;SDS011;31601;48.042;12.240;2023-07-31T11:30:45;3.10;;;1.63;;
12756;SDS011;31601;48.042;12.240;2023-07-31T11:33:12;5.07;;;1.95;;
12756;SDS011;31601;48.042;12.240;2023-07-31T11:35:42;3.03;;;1.48;;
12756;SDS011;31601;48.042;12.240;2023-07-31T11:38:12;3.42;;;1.70;;
12756;SDS011;31601;48.042;12.240;2023-07-31T11:40:48;2.38;;;1.45;;
12756;SDS011;31601;48.042;12.240;2023-07-31T11:43:14;2.92;;;1.55;;
12756;SDS011;31601;48.042;12.240;2023-07-31T11:45:44;2.70;;;1.80;;
12756;SDS011;31601;48.042;12.240;2023-07-31T11:48:17;5.57;;;2.47;;
12756;SDS011;31601;48.042;12.240;2023-07-31T11:50:45;2.97;;;1.42;;
12756;SDS011;31601;48.042;12.240;2023-07-31T11:53:13;2.20;;;1.42;;
12756;SDS011;31601;48.042;12.240;2023-07-31T11:55:40;5.75;;;2.08;;
12756;SDS011;31601;48.042;12.240;2023-07-31T11:58:06;2.60;;;1.75;;
12756;SDS011;31601;48.042;12.240;2023-07-31T12:00:34;3.33;;;1.48;;
12756;SDS011;31601;48.042;12.240;2023-07-31T12:03:00;3.35;;;1.92;;
12756;SDS011;31601;48.042;12.240;2023-07-31T12:05:27;2.67;;;1.50;;
12756;SDS011;31601;48.042;12.240;2023-07-31T12:07:54;3.25;;;1.60;;
12756;SDS011;31601;48.042;12.240;2023-07-31T12:10:29;4.13;;;1.58;;
12756;SDS011;31601;48.042;12.240;2023-07-31T12:13:00;3.50;;;1.85;;
12756;SDS011;31601;48.042;12.240;2023-07-31T12:15:37;4.22;;;1.50;;
12756;SDS011;31601;48.042;12.240;2023-07-31T12:18:06;6.75;;;2.13;;
12756;SDS011;31601;48.042;12.240;2023-07-31T12:20:34;3.40;;;2.08;;
12756;SDS011;31601;48.042;12.240;2023-07-31T12:23:01;2.92;;;1.90;;
12756;SDS011;31601;48.042;12.240;2023-07-31T12:25:30;2.20;;;1.75;;
12756;SDS011;31601;48.042;12.240;2023-07-31T12:27:57;3.35;;;1.80;;
12756;SDS011;31601;48.042;12.240;2023-07-31T12:30:27;3.25;;;1.67;;
12756;SDS011;31601;48.042;12.240;2023-07-31T12:32:54;3.75;;;1.60;;
12756;SDS011;31601;48.042;12.240;2023-07-31T12:35:21;2.75;;;1.60;;
12756;SDS011;31601;48.042;12.240;2023-07-31T12:37:47;3.58;;;1.90;;
12756;SDS011;31601;48.042;12.240;2023-07-31T12:40:14;2.75;;;1.70;;
12756;SDS011;31601;48.042;12.240;2023-07-31T12:42:42;3.00;;;1.90;;
12756;SDS011;31601;48.042;12.240;2023-07-31T12:45:08;2.47;;;1.45;;
12756;SDS011;31601;48.042;12.240;2023-07-31T12:47:35;2.63;;;1.70;;
12756;SDS011;31601;48.042;12.240;2023-07-31T12:50:01;2.55;;;1.60;;
12756;SDS011;31601;48.042;12.240;2023-07-31T12:52:28;1.90;;;1.30;;
12756;SDS011;31601;48.042;12.240;2023-07-31T12:54:54;2.10;;;1.70;;
12756;SDS011;31601;48.042;12.240;2023-07-31T12:57:21;2.88;;;1.70;;
12756;SDS011;31601;48.042;12.240;2023-07-31T12:59:48;2.63;;;1.60;;
12756;SDS011;31601;48.042;12.240;2023-07-31T13:02:15;2.78;;;1.75;;
12756;SDS011;31601;48.042;12.240;2023-07-31T13:04:41;3.85;;;1.95;;
12756;SDS011;31601;48.042;12.240;2023-07-31T13:07:08;2.63;;;1.77;;
12756;SDS011;31601;48.042;12.240;2023-07-31T13:09:34;2.30;;;1.65;;
12756;SDS011;31601;48.042;12.240;2023-07-31T13:12:00;2.50;;;1.45;;
12756;SDS011;31601;48.042;12.240;2023-07-31T13:14:27;3.10;;;1.50;;
12756;SDS011;31601;48.042;12.240;2023-07-31T13:16:55;3.90;;;1.73;;
12756;SDS011;31601;48.042;12.240;2023-07-31T13:19:21;3.47;;;1.50;;
12756;SDS011;31601;48.042;12.240;2023-07-31T13:21:48;3.05;;;1.48;;
12756;SDS011;31601;48.042;12.240;2023-07-31T13:24:14;2.60;;;1.40;;
12756;SDS011;31601;48.042;12.240;2023-07-31T13:26:40;2.97;;;1.83;;
12756;SDS011;31601;48.042;12.240;2023-07-31T13:29:07;3.13;;;1.60;;
12756;SDS011;31601;48.042;12.240;2023-07-31T13:31:33;4.47;;;1.88;;
12756;SDS011;31601;48.042;12.240;2023-07-31T13:34:01;2.13;;;1.45;;
12756;SDS011;31601;48.042;12.240;2023-07-31T13:36:29;2.95;;;1.45;;
12756;SDS011;31601;48.042;12.240;2023-07-31T13:38:55;3.92;;;1.70;;
12756;SDS011;31601;48.042;12.240;2023-07-31T13:41:21;4.40;;;1.65;;
12756;SDS011;31601;48.042;12.240;2023-07-31T13:43:48;2.88;;;1.65;;
12756;SDS011;31601;48.042;12.240;2023-07-31T13:46:14;4.38;;;1.65;;
12756;SDS011;31601;48.042;12.240;2023-07-31T13:48:41;2.25;;;1.42;;
12756;SDS011;31601;48.042;12.240;2023-07-31T13:51:08;3.08;;;1.55;;
12756;SDS011;31601;48.042;12.240;2023-07-31T13:53:35;2.72;;;1.83;;
12756;SDS011;31601;48.042;12.240;2023-07-31T13:56:01;2.30;;;1.52;;
12756;SDS011;31601;48.042;12.240;2023-07-31T13:58:28;2.63;;;1.70;;
12756;SDS011;31601;48.042;12.240;2023-07-31T14:00:54;2.53;;;1.95;;
12756;SDS011;31601;48.042;12.240;2023-07-31T14:03:20;2.28;;;1.50;;
12756;SDS011;31601;48.042;12.240;2023-07-31T14:05:47;2.42;;;1.45;;
12756;SDS011;31601;48.042;12.240;2023-07-31T14:08:15;2.00;;;1.80;;
12756;SDS011;31601;48.042;12.240;2023-07-31T14:10:41;4.45;;;1.80;;
12756;SDS011;31601;48.042;12.240;2023-07-31T14:13:07;5.05;;;1.73;;
12756;SDS011;31601;48.042;12.240;2023-07-31T14:15:34;2.45;;;1.45;;
12756;SDS011;31601;48.042;12.240;2023-07-31T14:18:01;3.60;;;1.55;;
12756;SDS011;31601;48.042;12.240;2023-07-31T14:20:27;2.88;;;1.60;;
12756;SDS011;31601;48.042;12.240;2023-07-31T14:22:54;2.35;;;1.60;;
12756;SDS011;31601;48.042;12.240;2023-07-31T14:25:22;2.53;;;1.50;;
12756;SDS011;31601;48.042;12.240;2023-07-31T14:27:48;2.35;;;1.60;;
12756;SDS011;31601;48.042;12.240;2023-07-31T14:30:14;1.92;;;1.35;;
12756;SDS011;31601;48.042;12.240;2023-07-31T14:32:42;3.42;;;1.48;;
12756;SDS011;31601;48.042;12.240;2023-07-31T14:35:08;2.60;;;1.58;;